Time;durP1;ratioP1;P1;durP2;ratioP2;P2;SDS_P1;SDS_P2;PMS_P1;PMS_P2;Temp;Humidity;BMP_temperature;BMP_pressure;BME280_temperature;BME280_humidity;BME280_pressure;Samples;Min_cycle;Max_cycle;Signal;HPM_P1;HPM_P2
2022/02/17 00:01:01;;;;;;;14.00;7.68;;;;;;;8.23;62.97;99148.00;4492524;31;33812;-82
2022/02/17 00:03:29;;;;;;;12.77;5.80;;;;;;;8.11;63.30;99157.28;4478952;31;34277;-82
2022/02/17 00:05:56;;;;;;;13.07;6.35;;;;;;;7.31;66.39;99165.91;4479548;31;33845;-82
2022/02/17 00:08:28;;;;;;;12.23;7.50;;;;;;;7.16;67.05;99177.87;4482362;31;33491;-82
2022/02/17 00:10:56;;;;;;;9.77;6.25;;;;;;;7.69;65.47;99166.06;4478522;31;33343;-82
2022/02/17 00:13:25;;;;;;;12.13;7.05;;;;;;;8.54;62.14;99165.91;4479913;31;33523;-83
2022/02/17 00:15:52;;;;;;;9.30;6.25;;;;;;;8.46;62.11;99164.50;4491417;31;34694;-83
2022/02/17 00:18:23;;;;;;;12.45;7.07;;;;;;;8.35;62.78;99145.66;4494071;31;33493;-83
2022/02/17 00:20:58;;;;;;;10.57;6.65;;;;;;;8.18;63.31;99127.19;4477029;31;33230;-83
2022/02/17 00:23:27;;;;;;;13.32;6.95;;;;;;;8.30;63.13;99139.75;4472662;31;34792;-83
2022/02/17 00:25:56;;;;;;;17.10;6.90;;;;;;;8.19;63.31;99136.75;4473265;31;34980;-83
2022/02/17 00:28:23;;;;;;;11.45;6.45;;;;;;;7.87;64.50;99131.13;4492351;31;32982;-83
2022/02/17 00:30:52;;;;;;;9.52;5.93;;;;;;;7.63;65.73;99130.41;4480983;31;32938;-84
2022/02/17 00:33:20;;;;;;;11.55;6.80;;;;;;;7.51;66.08;99140.59;4479320;31;32703;-84
2022/02/17 00:35:47;;;;;;;10.65;5.72;;;;;;;8.15;64.08;99140.44;4492610;31;33235;-86
2022/02/17 00:38:18;;;;;;;11.90;6.28;;;;;;;8.65;62.14;99130.31;4480468;31;32780;-85
2022/02/17 00:40:46;;;;;;;12.45;5.82;;;;;;;8.40;62.93;99127.97;4494220;31;33481;-85
2022/02/17 00:43:15;;;;;;;10.35;6.62;;;;;;;8.20;63.69;99146.34;4478150;31;33093;-83
2022/02/17 00:45:43;;;;;;;11.20;5.93;;;;;;;8.60;62.32;99134.06;4493336;31;33907;-83
2022/02/17 00:48:11;;;;;;;14.15;6.53;;;;;;;8.21;63.51;99109.50;4480163;31;33790;-83
2022/02/17 00:50:39;;;;;;;9.73;6.35;;;;;;;8.34;63.32;99108.91;4491090;31;34226;-83
2022/02/17 00:53:07;;;;;;;12.15;5.82;;;;;;;8.02;64.89;99089.31;4491077;31;34513;-83
2022/02/17 00:55:35;;;;;;;10.70;6.37;;;;;;;7.93;65.19;99090.59;4485719;31;32481;-83
2022/02/17 00:58:04;;;;;;;9.13;5.97;;;;;;;7.98;65.07;99093.03;4480042;31;34071;-82
2022/02/17 01:00:33;;;;;;;8.00;5.80;;;;;;;8.37;63.72;99072.00;4478324;31;32974;-84
2022/02/17 01:03:02;;;;;;;11.32;6.70;;;;;;;8.55;63.11;99072.91;4478455;31;34582;-85
2022/02/17 01:05:31;;;;;;;9.27;5.78;;;;;;;8.09;64.95;99091.63;4492357;31;34713;-84
2022/02/17 01:07:59;;;;;;;9.57;5.95;;;;;;;8.60;63.31;99073.56;4499457;31;33770;-85
2022/02/17 01:10:28;;;;;;;12.20;6.70;;;;;;;8.58;63.11;99072.75;4473046;31;33202;-85
2022/02/17 01:12:58;;;;;;;10.48;5.65;;;;;;;8.91;62.04;99057.97;4487170;31;33527;-84
2022/02/17 01:15:30;;;;;;;9.95;5.32;;;;;;;8.42;63.92;99049.81;4483988;31;33602;-86
2022/02/17 01:17:58;;;;;;;10.48;5.85;;;;;;;7.60;66.60;99035.13;4485264;31;32956;-85
2022/02/17 01:20:26;;;;;;;9.73;5.68;;;;;;;7.82;66.37;99024.50;4479401;31;32887;-86
2022/02/17 01:22:56;;;;;;;8.50;5.60;;;;;;;8.04;65.69;99038.41;4492748;31;33143;-85
2022/02/17 01:25:23;;;;;;;13.18;5.75;;;;;;;8.51;63.78;99034.53;4481189;31;33430;-84
2022/02/17 01:27:53;;;;;;;10.18;5.47;;;;;;;8.65;63.32;99043.47;4485593;31;32252;-85
2022/02/17 01:30:21;;;;;;;10.52;5.75;;;;;;;8.38;64.22;99045.59;4492653;31;32941;-85
2022/02/17 01:32:49;;;;;;;9.35;6.07;;;;;;;8.11;65.22;99054.72;4478890;31;33335;-85
2022/02/17 01:35:17;;;;;;;8.57;5.93;;;;;;;8.53;63.80;99074.75;4478472;31;33505;-84
2022/02/17 01:37:52;;;;;;;11.32;6.12;;;;;;;8.79;62.87;99055.09;4485195;31;33701;-85
2022/02/17 01:40:20;;;;;;;10.18;5.75;;;;;;;8.28;64.49;99040.81;4493792;31;34323;-85
2022/02/17 01:42:48;;;;;;;11.30;6.30;;;;;;;8.03;65.60;99031.44;4477705;31;32677;-85
2022/02/17 01:45:16;;;;;;;11.98;5.68;;;;;;;7.73;66.86;99031.00;4464263;31;33546;-85
2022/02/17 01:47:46;;;;;;;12.05;5.85;;;;;;;7.64;67.35;99023.53;4479280;31;31745;-85
2022/02/17 01:50:16;;;;;;;13.75;6.45;;;;;;;7.77;67.13;99008.94;4491520;31;33273;-84
2022/02/17 01:52:45;;;;;;;9.80;6.20;;;;;;;7.58;68.25;98985.25;4493034;31;33781;-85
2022/02/17 01:55:12;;;;;;;11.27;5.80;;;;;;;7.76;67.56;98962.56;4492390;31;33901;-84
2022/02/17 01:57:41;;;;;;;7.25;5.18;;;;;;;7.54;68.52;98969.69;4485412;31;33847;-84
2022/02/17 02:00:11;;;;;;;8.73;5.75;;;;;;;7.73;68.02;98956.59;4486271;31;32232;-86
2022/02/17 02:02:42;;;;;;;9.90;5.82;;;;;;;7.75;68.10;98971.37;4485893;31;33830;-85
2022/02/17 02:05:10;;;;;;;8.80;5.57;;;;;;;7.85;67.43;98962.16;4474695;31;33873;-86
2022/02/17 02:07:38;;;;;;;9.30;6.18;;;;;;;8.11;66.59;98954.81;4480311;31;32566;-85
2022/02/17 02:10:09;;;;;;;9.00;5.57;;;;;;;7.83;67.63;98950.88;4480481;31;34145;-84
2022/02/17 02:12:37;;;;;;;8.98;5.87;;;;;;;7.83;67.50;98942.97;4492343;31;33614;-84
2022/02/17 02:15:06;;;;;;;9.25;6.05;;;;;;;7.67;67.95;98944.59;4479165;31;33667;-85
2022/02/17 02:17:38;;;;;;;9.23;6.00;;;;;;;7.76;67.55;98930.19;4481277;31;33391;-84
2022/02/17 02:20:08;;;;;;;10.85;5.30;;;;;;;7.75;67.98;98931.97;4494267;31;33016;-84
2022/02/17 02:22:36;;;;;;;9.77;5.62;;;;;;;7.69;68.01;98924.34;4492311;31;33463;-84
2022/02/17 02:25:05;;;;;;;9.60;5.28;;;;;;;7.17;69.79;98910.94;4479486;31;33601;-84
2022/02/17 02:27:35;;;;;;;9.52;5.22;;;;;;;7.54;68.98;98910.13;4481640;31;33835;-83
2022/02/17 02:30:07;;;;;;;11.30;5.60;;;;;;;7.33;69.55;98906.72;4484603;31;33910;-83
2022/02/17 02:32:35;;;;;;;9.32;5.18;;;;;;;7.47;69.09;98897.38;4480321;31;32585;-83
2022/02/17 02:35:03;;;;;;;10.20;5.28;;;;;;;7.99;67.37;98892.31;4478508;31;33448;-83
2022/02/17 02:37:31;;;;;;;11.30;5.40;;;;;;;7.94;67.42;98892.53;4479488;31;33663;-84
2022/02/17 02:39:58;;;;;;;9.02;4.68;;;;;;;8.27;66.44;98897.09;4480822;31;32207;-84
2022/02/17 02:42:26;;;;;;;7.75;3.90;;;;;;;8.49;65.08;98894.28;4474828;31;34404;-84
2022/02/17 02:44:54;;;;;;;8.50;4.65;;;;;;;8.08;66.70;98912.91;4473901;31;34485;-84
2022/02/17 02:47:21;;;;;;;7.65;4.68;;;;;;;8.18;66.52;98908.91;4482565;31;33439;-84
2022/02/17 02:49:49;;;;;;;6.75;4.43;;;;;;;8.22;66.32;98899.94;4482125;31;33675;-84
2022/02/17 02:52:17;;;;;;;8.23;4.68;;;;;;;8.69;64.71;98899.41;4486690;31;32802;-84
2022/02/17 02:54:45;;;;;;;8.07;4.47;;;;;;;8.67;64.20;98882.84;4481663;31;33426;-84
2022/02/17 02:57:13;;;;;;;9.73;4.30;;;;;;;8.11;66.70;98878.56;4479779;31;33230;-83
2022/02/17 02:59:42;;;;;;;6.45;3.97;;;;;;;8.18;66.73;98880.84;4493310;31;33017;-84
2022/02/17 03:02:10;;;;;;;7.62;4.25;;;;;;;8.28;66.43;98885.66;4490992;31;33145;-84
2022/02/17 03:04:37;;;;;;;7.78;4.40;;;;;;;8.01;67.11;98877.31;4491192;31;33330;-84
2022/02/17 03:07:06;;;;;;;5.97;4.00;;;;;;;8.25;66.31;98865.59;4474152;31;32630;-84
2022/02/17 03:09:37;;;;;;;8.02;4.28;;;;;;;8.10;66.97;98855.84;4493584;31;34374;-84
2022/02/17 03:12:06;;;;;;;6.85;4.50;;;;;;;8.15;66.75;98848.56;4467274;31;34093;-84
2022/02/17 03:14:34;;;;;;;12.52;4.47;;;;;;;8.08;67.11;98852.44;4472735;31;34313;-84
2022/02/17 03:17:02;;;;;;;6.47;3.95;;;;;;;8.36;66.03;98844.94;4479736;31;33103;-84
2022/02/17 03:19:29;;;;;;;5.65;3.95;;;;;;;8.53;65.51;98844.06;4494086;31;34155;-84
2022/02/17 03:21:57;;;;;;;6.70;4.45;;;;;;;8.61;65.15;98849.78;4493202;31;34167;-84
2022/02/17 03:24:25;;;;;;;5.95;3.70;;;;;;;8.96;63.99;98834.81;4492822;31;35169;-84
2022/02/17 03:26:52;;;;;;;7.90;3.75;;;;;;;8.89;64.02;98830.81;4494155;31;33381;-84
2022/02/17 03:29:20;;;;;;;6.93;3.95;;;;;;;8.78;64.09;98827.84;4481910;31;31743;-84
2022/02/17 03:31:50;;;;;;;6.28;3.28;;;;;;;8.85;64.16;98837.16;4494150;31;34921;-84
2022/02/17 03:34:19;;;;;;;11.52;4.00;;;;;;;9.14;63.22;98819.81;4486419;31;32759;-84
2022/02/17 03:36:48;;;;;;;8.30;3.72;;;;;;;8.90;63.55;98821.97;4486583;31;32982;-84
2022/02/17 03:39:16;;;;;;;6.15;4.20;;;;;;;9.52;61.65;98818.69;4483803;31;33132;-86
2022/02/17 03:41:46;;;;;;;8.15;4.03;;;;;;;9.38;62.03;98807.09;4493165;31;33718;-85
2022/02/17 03:44:15;;;;;;;6.43;3.28;;;;;;;9.45;61.88;98805.00;4473959;31;34377;-83
2022/02/17 03:46:43;;;;;;;4.50;2.97;;;;;;;9.18;62.47;98799.44;4475259;31;33603;-82
2022/02/17 03:49:11;;;;;;;5.05;3.40;;;;;;;9.16;62.77;98809.19;4466785;31;31311;-84
2022/02/17 03:51:39;;;;;;;4.25;3.10;;;;;;;9.52;61.39;98800.22;4494088;31;34248;-84
2022/02/17 03:54:07;;;;;;;6.65;3.72;;;;;;;8.96;62.88;98807.62;4466835;31;33212;-85
2022/02/17 03:56:38;;;;;;;5.87;3.62;;;;;;;8.86;63.59;98809.91;4479458;31;33746;-84
2022/02/17 03:59:08;;;;;;;5.10;3.30;;;;;;;8.90;63.47;98821.97;4481099;31;32936;-84
2022/02/17 04:01:37;;;;;;;5.72;3.70;;;;;;;9.10;62.91;98834.06;4492721;31;33852;-84
2022/02/17 04:04:07;;;;;;;7.80;3.50;;;;;;;9.13;62.56;98840.97;4486595;31;34132;-84
2022/02/17 04:06:35;;;;;;;7.93;4.45;;;;;;;9.32;62.01;98843.47;4485273;31;34502;-84
2022/02/17 04:09:05;;;;;;;9.43;3.75;;;;;;;9.22;62.22;98848.41;4476542;31;33427;-84
2022/02/17 04:11:33;;;;;;;6.07;3.53;;;;;;;9.00;63.11;98861.84;4478963;31;33817;-84
2022/02/17 04:14:02;;;;;;;6.65;3.37;;;;;;;9.10;63.12;98872.72;4482677;31;35317;-84
2022/02/17 04:16:31;;;;;;;5.32;3.58;;;;;;;9.29;62.19;98860.28;4478005;31;34894;-84
2022/02/17 04:19:01;;;;;;;5.20;3.40;;;;;;;9.29;62.19;98865.56;4478019;31;33238;-84
2022/02/17 04:21:29;;;;;;;4.28;3.08;;;;;;;8.73;63.94;98848.31;4492805;31;33373;-83
2022/02/17 04:23:58;;;;;;;8.20;3.83;;;;;;;8.39;65.38;98836.88;4479046;31;33930;-83
2022/02/17 04:26:26;;;;;;;5.87;3.70;;;;;;;8.65;64.83;98827.66;4492627;31;33781;-83
2022/02/17 04:28:57;;;;;;;5.43;3.47;;;;;;;8.26;66.35;98825.25;4490428;31;33350;-84
2022/02/17 04:31:27;;;;;;;6.40;3.33;;;;;;;8.42;66.33;98813.03;4492362;31;33527;-83
2022/02/17 04:33:55;;;;;;;5.93;3.83;;;;;;;8.61;65.89;98802.44;4482249;31;34012;-83
2022/02/17 04:36:23;;;;;;;7.47;3.85;;;;;;;8.48;67.22;98797.88;4478589;31;32785;-83
2022/02/17 04:38:51;;;;;;;6.45;4.22;;;;;;;8.54;66.53;98811.56;4492676;31;33698;-83
2022/02/17 04:44:08;;;;;;;5.78;3.65;;;;;;;8.29;68.54;98808.44;4494958;31;33641;-83
2022/02/17 04:46:36;;;;;;;8.40;3.83;;;;;;;8.09;69.13;98775.25;4477288;31;33196;-83
2022/02/17 04:49:03;;;;;;;6.18;4.03;;;;;;;8.28;68.84;98759.41;4484972;31;32577;-82
2022/02/17 04:51:31;;;;;;;6.85;4.20;;;;;;;8.27;69.24;98763.81;4479273;31;34478;-82
2022/02/17 04:53:59;;;;;;;6.32;4.35;;;;;;;8.32;68.80;98764.44;4492861;31;33993;-82
2022/02/17 04:56:33;;;;;;;6.80;3.90;;;;;;;7.89;70.53;98763.97;4486693;31;32925;-82
2022/02/17 04:59:01;;;;;;;8.90;4.50;;;;;;;7.71;71.27;98754.34;4483216;31;33299;-82
2022/02/17 05:01:32;;;;;;;6.35;4.07;;;;;;;7.88;70.76;98767.53;4477938;31;32762;-82
2022/02/17 05:04:02;;;;;;;6.32;4.35;;;;;;;7.95;70.42;98758.37;4490198;31;35297;-83
2022/02/17 05:06:31;;;;;;;5.37;4.18;;;;;;;7.57;72.28;98749.75;4480934;31;33035;-83
2022/02/17 05:08:59;;;;;;;6.75;3.28;;;;;;;7.60;72.21;98748.78;4493935;31;33033;-82
2022/02/17 05:11:28;;;;;;;8.15;4.32;;;;;;;7.85;71.56;98745.78;4489059;31;33763;-83
2022/02/17 05:13:56;;;;;;;10.55;4.72;;;;;;;8.12;70.23;98743.56;4475292;31;33130;-83
2022/02/17 05:16:24;;;;;;;7.25;4.22;;;;;;;8.35;69.22;98730.06;4476495;31;31954;-82
2022/02/17 05:18:54;;;;;;;10.55;5.10;;;;;;;8.38;69.18;98714.16;4465787;31;32339;-82
2022/02/17 05:21:22;;;;;;;5.05;3.70;;;;;;;7.89;71.08;98700.88;4490670;31;34067;-83
2022/02/17 05:23:51;;;;;;;7.93;4.68;;;;;;;7.98;70.65;98698.72;4489558;31;34109;-83
2022/02/17 05:26:19;;;;;;;7.07;4.35;;;;;;;8.01;70.84;98693.28;4477400;31;33739;-82
2022/02/17 05:28:47;;;;;;;6.82;4.75;;;;;;;7.87;71.23;98675.59;4486340;31;32659;-84
2022/02/17 05:31:16;;;;;;;7.20;4.28;;;;;;;7.47;72.47;98672.31;4476014;31;34819;-83
2022/02/17 05:33:45;;;;;;;10.90;4.43;;;;;;;7.60;72.30;98683.94;4471769;31;33535;-83
2022/02/17 05:36:13;;;;;;;6.53;4.07;;;;;;;7.94;71.22;98687.50;4489200;31;34498;-83
2022/02/17 05:38:41;;;;;;;8.25;4.35;;;;;;;7.92;71.27;98674.41;4480061;31;32637;-83
2022/02/17 05:41:12;;;;;;;7.67;5.23;;;;;;;7.24;73.38;98659.47;4482926;31;32667;-83
2022/02/17 05:43:42;;;;;;;7.90;4.05;;;;;;;7.44;73.00;98649.69;4479546;31;33354;-84
2022/02/17 05:46:10;;;;;;;5.32;4.37;;;;;;;7.52;72.92;98648.47;4468518;31;33884;-84
2022/02/17 05:48:38;;;;;;;8.50;4.28;;;;;;;7.38;73.12;98625.50;4478525;31;31326;-84
2022/02/17 05:51:05;;;;;;;13.98;7.00;;;;;;;7.40;73.05;98632.38;4488665;31;33820;-83
2022/02/17 05:53:33;;;;;;;27.08;11.10;;;;;;;7.82;71.87;98620.63;4474185;31;32989;-84
2022/02/17 05:56:01;;;;;;;10.80;6.47;;;;;;;7.87;71.35;98650.16;4488865;31;31858;-86
2022/02/17 05:58:31;;;;;;;8.57;5.00;;;;;;;7.80;71.63;98668.97;4488456;31;33084;-83
2022/02/17 06:00:58;;;;;;;9.45;5.22;;;;;;;8.13;70.68;98650.59;4474180;31;32810;-85
2022/02/17 06:03:27;;;;;;;13.45;6.40;;;;;;;7.97;71.13;98650.53;4467594;31;32288;-84
2022/02/17 06:05:54;;;;;;;26.05;8.07;;;;;;;7.67;72.23;98650.31;4488629;31;33118;-84
2022/02/17 06:08:23;;;;;;;19.75;7.97;;;;;;;7.74;72.00;98653.47;4476962;31;33937;-84
2022/02/17 06:10:53;;;;;;;15.60;6.95;;;;;;;8.08;70.96;98648.22;4477358;31;33116;-84
2022/02/17 06:13:20;;;;;;;21.00;9.57;;;;;;;8.08;71.01;98627.19;4486971;31;33397;-84
2022/02/17 06:15:49;;;;;;;14.43;7.07;;;;;;;7.77;71.93;98638.41;4478189;31;32400;-84
2022/02/17 06:18:17;;;;;;;15.50;6.62;;;;;;;8.04;71.14;98627.44;4476211;31;33467;-85
2022/02/17 06:20:49;;;;;;;21.15;7.25;;;;;;;8.80;68.28;98609.34;4474888;31;32716;-84
2022/02/17 06:23:17;;;;;;;16.05;6.47;;;;;;;8.40;69.73;98607.09;4486402;31;33363;-84
2022/02/17 06:25:44;;;;;;;16.37;7.40;;;;;;;8.15;70.53;98623.28;4475957;31;34439;-84
2022/02/17 06:28:13;;;;;;;17.05;7.93;;;;;;;8.66;68.78;98607.47;4474951;31;33289;-84
2022/02/17 06:30:45;;;;;;;11.60;6.10;;;;;;;8.47;69.41;98594.47;4475173;31;34252;-88
2022/02/17 06:33:13;;;;;;;8.45;5.53;;;;;;;8.08;70.97;98632.44;4463990;31;32845;-87
2022/02/17 06:35:41;;;;;;;8.30;4.93;;;;;;;8.76;68.36;98602.53;4473876;31;31818;-88
2022/02/17 06:38:09;;;;;;;9.05;6.07;;;;;;;8.76;68.69;98610.44;4486727;31;31506;-86
2022/02/17 06:40:36;;;;;;;9.30;5.57;;;;;;;8.61;69.64;98641.06;4479744;31;34513;-83
2022/02/17 06:43:06;;;;;;;8.35;4.43;;;;;;;9.07;67.72;98660.47;4477213;31;33708;-84
2022/02/17 06:45:35;;;;;;;10.07;4.85;;;;;;;8.34;70.05;98648.62;4488675;31;33300;-84
2022/02/17 06:48:04;;;;;;;16.92;4.60;;;;;;;8.45;69.87;98660.31;4490236;31;33578;-84
2022/02/17 06:50:33;;;;;;;6.65;4.00;;;;;;;8.53;69.62;98625.69;4490760;31;33602;-84
2022/02/17 06:53:04;;;;;;;;;;;;;;;8.19;70.92;98634.50;4482962;31;32816;-83
2022/02/17 06:55:34;;;;;;;8.30;4.53;;;;;;;8.92;68.47;98627.06;4476433;31;33292;-83
2022/02/17 06:58:04;;;;;;;7.55;5.12;;;;;;;8.44;69.31;98600.72;4490442;31;33414;-83
2022/02/17 07:00:32;;;;;;;8.02;4.82;;;;;;;8.05;70.97;98590.53;4468920;31;32742;-83
2022/02/17 07:03:00;;;;;;;5.10;3.97;;;;;;;7.68;71.83;98597.69;4482875;31;33326;-84
2022/02/17 07:05:28;;;;;;;5.47;3.70;;;;;;;7.71;72.03;98580.94;4493404;31;34007;-84
2022/02/17 07:07:56;;;;;;;8.35;4.22;;;;;;;8.09;71.01;98567.56;4476406;31;32156;-83
2022/02/17 07:13:12;;;;;;;7.90;3.72;;;;;;;8.17;70.60;98575.91;4477321;31;32903;-83
2022/02/17 07:15:39;;;;;;;7.10;4.15;;;;;;;8.60;69.29;98597.28;4470018;31;30842;-83
2022/02/17 07:18:09;;;;;;;5.20;3.80;;;;;;;8.51;68.90;98609.16;4467536;31;32680;-83
2022/02/17 07:20:38;;;;;;;7.80;4.25;;;;;;;8.44;69.81;98619.13;4475614;31;34729;-84
2022/02/17 07:23:06;;;;;;;9.48;5.12;;;;;;;8.42;69.83;98610.50;4485818;31;33841;-84
2022/02/17 07:25:33;;;;;;;8.70;4.03;;;;;;;8.16;70.04;98642.53;4489814;31;33511;-83
2022/02/17 07:28:04;;;;;;;10.35;4.65;;;;;;;8.66;68.50;98639.03;4467706;31;32649;-84
2022/02/17 07:30:34;;;;;;;8.32;4.10;;;;;;;8.48;69.24;98595.31;4494697;31;33771;-84
2022/02/17 07:33:02;;;;;;;7.57;3.95;;;;;;;8.55;68.98;98588.78;4479826;31;33786;-84
2022/02/17 07:35:31;;;;;;;6.25;3.40;;;;;;;8.28;69.48;98591.94;4476764;31;34613;-84
2022/02/17 07:37:58;;;;;;;5.82;3.20;;;;;;;8.40;69.44;98580.81;4474131;31;33388;-84
2022/02/17 07:40:27;;;;;;;5.12;3.45;;;;;;;8.89;68.06;98557.03;4487978;31;35242;-84
2022/02/17 07:42:55;;;;;;;6.12;3.22;;;;;;;8.46;68.79;98541.00;4474890;31;33945;-84
2022/02/17 07:45:23;;;;;;;5.45;3.42;;;;;;;8.25;69.52;98534.25;4478354;31;31734;-84
2022/02/17 07:47:52;;;;;;;6.57;3.85;;;;;;;8.65;68.19;98530.31;4487818;31;32589;-84
2022/02/17 07:50:20;;;;;;;6.07;3.47;;;;;;;8.78;68.60;98524.34;4477908;31;33480;-84
2022/02/17 07:52:48;;;;;;;9.10;4.05;;;;;;;8.43;68.48;98509.59;4473935;31;33162;-84
2022/02/17 07:55:16;;;;;;;8.40;3.78;;;;;;;8.72;68.18;98525.53;4487283;31;33822;-84
2022/02/17 07:57:44;;;;;;;5.22;3.30;;;;;;;8.42;68.66;98514.94;4466575;31;32427;-84
2022/02/17 08:00:13;;;;;;;6.95;3.33;;;;;;;8.82;67.85;98539.88;4489961;31;33402;-84
2022/02/17 08:02:41;;;;;;;5.25;3.17;;;;;;;8.96;67.40;98521.50;4476278;31;34929;-84
2022/02/17 08:05:10;;;;;;;5.40;3.45;;;;;;;8.92;67.78;98509.44;4474659;31;33416;-84
2022/02/17 08:07:40;;;;;;;4.70;3.20;;;;;;;9.41;66.08;98506.59;4486975;31;31069;-84
2022/02/17 08:10:08;;;;;;;7.70;3.95;;;;;;;9.18;66.14;98504.47;4487052;31;35452;-84
2022/02/17 08:12:43;;;;;;;11.27;4.25;;;;;;;9.53;65.28;98512.06;4462294;31;32961;-84
2022/02/17 08:15:11;;;;;;;6.47;3.92;;;;;;;9.44;65.90;98556.47;4477253;31;32734;-83
2022/02/17 08:17:39;;;;;;;8.68;3.85;;;;;;;9.60;64.52;98547.66;4479702;31;32814;-84
2022/02/17 08:20:07;;;;;;;8.60;3.62;;;;;;;9.34;66.48;98536.88;4483486;31;31918;-84
2022/02/17 08:22:35;;;;;;;5.95;3.30;;;;;;;9.27;67.64;98568.94;4475658;31;31592;-84
2022/02/17 08:25:03;;;;;;;4.87;2.80;;;;;;;9.31;65.81;98542.34;4478026;31;33277;-83
2022/02/17 08:27:31;;;;;;;6.20;3.45;;;;;;;9.49;66.70;98538.63;4478941;31;31873;-84
2022/02/17 08:29:59;;;;;;;7.22;3.62;;;;;;;9.98;64.06;98511.91;4488602;31;33428;-85
2022/02/17 08:32:27;;;;;;;5.87;3.25;;;;;;;9.84;64.08;98511.91;4476953;31;33438;-84
2022/02/17 08:34:58;;;;;;;3.75;2.87;;;;;;;9.70;64.78;98535.63;4493817;31;34535;-84
2022/02/17 08:37:26;;;;;;;5.75;3.08;;;;;;;9.86;62.63;98527.63;4489590;31;32782;-85
2022/02/17 08:39:53;;;;;;;3.62;2.70;;;;;;;9.76;64.05;98524.72;4477872;31;32759;-86
2022/02/17 08:42:21;;;;;;;5.30;2.97;;;;;;;9.74;63.67;98521.31;4491141;31;33688;-85
2022/02/17 08:44:49;;;;;;;9.30;4.25;;;;;;;9.76;65.09;98500.97;4490089;31;33780;-85
2022/02/17 08:47:19;;;;;;;8.35;3.92;;;;;;;9.74;65.67;98545.91;4477627;31;31312;-86
2022/02/17 08:49:48;;;;;;;6.62;3.12;;;;;;;10.16;62.81;98503.78;4478209;31;32787;-85
2022/02/17 08:52:16;;;;;;;8.00;4.25;;;;;;;10.19;63.39;98511.50;4486193;31;34007;-86
2022/02/17 08:54:48;;;;;;;;;;;;;;;10.37;62.21;98515.66;4488588;31;32101;-85
2022/02/17 08:57:17;;;;;;;5.22;2.95;;;;;;;10.43;60.08;98512.63;4464258;31;31931;-85
2022/02/17 08:59:44;;;;;;;6.90;2.58;;;;;;;10.79;59.37;98503.31;4475976;31;33203;-86
2022/02/17 09:02:12;;;;;;;5.35;3.00;;;;;;;10.47;60.54;98498.31;4467547;31;32943;-86
2022/02/17 09:04:40;;;;;;;5.20;3.70;;;;;;;10.01;63.56;98506.44;4475534;31;32563;-86
2022/02/17 09:07:08;;;;;;;4.37;2.50;;;;;;;10.30;61.92;98514.34;4466504;31;32644;-86
2022/02/17 09:09:37;;;;;;;4.10;3.05;;;;;;;10.40;61.56;98480.34;4479130;31;33314;-85
2022/02/17 09:12:05;;;;;;;8.35;3.47;;;;;;;10.34;61.24;98481.56;4480504;31;34884;-85
2022/02/17 09:14:33;;;;;;;6.30;2.58;;;;;;;11.02;58.49;98499.16;4474383;31;33119;-86
2022/02/17 09:17:02;;;;;;;4.65;2.70;;;;;;;10.87;58.53;98485.19;4478806;31;33291;-85
2022/02/17 09:19:29;;;;;;;4.57;3.12;;;;;;;10.89;60.48;98477.97;4492948;31;33456;-86
2022/02/17 09:21:58;;;;;;;4.87;3.05;;;;;;;11.15;61.07;98470.09;4494138;31;34663;-86
2022/02/17 09:24:26;;;;;;;4.45;2.60;;;;;;;11.27;58.31;98472.78;4478860;31;33256;-85
2022/02/17 09:26:56;;;;;;;4.72;2.95;;;;;;;11.56;58.83;98450.59;4492597;31;34124;-85
2022/02/17 09:29:24;;;;;;;3.80;2.28;;;;;;;11.05;58.40;98461.13;4466016;31;32803;-85
2022/02/17 09:32:13;;;;;;;9.18;3.10;;;;;;;11.22;56.50;98463.47;4490395;31;33341;-86
2022/02/17 09:34:41;;;;;;;3.45;2.78;;;;;;;11.90;56.71;98442.03;4489910;31;33414;-85
2022/02/17 09:37:08;;;;;;;4.35;2.47;;;;;;;12.42;56.39;98440.09;4491577;31;32961;-85
2022/02/17 09:39:36;;;;;;;4.87;2.42;;;;;;;12.32;55.29;98436.44;4491770;31;33947;-85
2022/02/17 09:42:05;;;;;;;4.10;2.92;;;;;;;12.24;54.58;98424.56;4490674;31;33608;-85
2022/02/17 09:44:34;;;;;;;5.93;2.65;;;;;;;12.17;55.58;98426.00;4477112;31;32799;-85
2022/02/17 09:47:04;;;;;;;4.55;2.70;;;;;;;12.47;54.95;98427.34;4486262;31;33023;-85
2022/02/17 09:49:32;;;;;;;4.68;2.50;;;;;;;12.27;53.25;98415.59;4477688;31;33186;-85
2022/02/17 09:52:00;;;;;;;6.97;3.80;;;;;;;12.25;54.88;98402.47;4477206;31;34161;-86
2022/02/17 09:54:28;;;;;;;5.72;3.45;;;;;;;12.57;54.07;98392.13;4488078;31;32116;-86
2022/02/17 09:56:56;;;;;;;5.25;3.22;;;;;;;13.07;53.22;98379.56;4490345;31;32967;-85
2022/02/17 09:59:24;;;;;;;4.90;3.08;;;;;;;13.43;51.40;98351.19;4489298;31;33883;-86
2022/02/17 10:01:56;;;;;;;5.75;2.83;;;;;;;13.48;52.13;98369.37;4498500;31;34005;-86
2022/02/17 10:04:26;;;;;;;6.75;3.05;;;;;;;13.79;49.71;98365.16;4490930;31;34031;-85
2022/02/17 10:07:00;;;;;;;5.78;3.30;;;;;;;13.50;52.61;98364.81;4490403;31;34107;-85
2022/02/17 10:09:38;;;;;;;6.45;2.78;;;;;;;13.45;50.92;98382.91;4483754;31;33514;-85
2022/02/17 10:12:07;;;;;;;4.57;2.50;;;;;;;13.61;49.15;98370.09;4484836;31;34022;-84
2022/02/17 10:14:39;;;;;;;3.33;2.30;;;;;;;13.06;51.16;98372.56;4480352;31;33782;-84
2022/02/17 10:17:10;;;;;;;6.32;2.60;;;;;;;13.51;50.11;98362.03;4479500;31;32976;-85
2022/02/17 10:19:49;;;;;;;6.85;3.10;;;;;;;13.74;50.01;98375.28;4494564;31;35112;-85
2022/02/17 10:22:31;;;;;;;5.25;3.28;;;;;;;13.94;47.84;98355.13;4480970;31;31915;-85
2022/02/17 10:25:00;;;;;;;5.62;2.83;;;;;;;13.68;49.59;98342.16;4495597;31;33460;-85
2022/02/17 10:27:30;;;;;;;4.25;2.90;;;;;;;13.91;47.80;98329.69;4475230;31;32262;-85
2022/02/17 10:30:07;;;;;;;5.00;2.83;;;;;;;14.49;48.11;98330.25;4478582;31;33910;-85
2022/02/17 10:33:03;;;;;;;4.68;3.30;;;;;;;14.95;46.79;98309.59;4479498;31;33600;-85
2022/02/17 10:35:31;;;;;;;3.65;2.72;;;;;;;15.57;44.32;98297.97;4479938;31;34124;-85
2022/02/17 10:38:00;;;;;;;4.03;2.60;;;;;;;15.17;45.91;98290.00;4480750;31;33391;-86
2022/02/17 10:40:30;;;;;;;3.33;2.58;;;;;;;14.76;46.01;98302.34;4493368;31;34579;-85
2022/02/17 10:43:06;;;;;;;5.45;2.95;;;;;;;15.04;44.84;98295.50;4480263;31;33497;-85
2022/02/17 10:45:45;;;;;;;4.37;2.97;;;;;;;15.37;44.18;98275.78;4481271;31;34539;-86
2022/02/17 10:48:26;;;;;;;4.47;3.12;;;;;;;14.96;45.36;98248.34;4472735;31;31719;-85
2022/02/17 10:51:07;;;;;;;7.78;2.97;;;;;;;15.00;45.25;98268.38;4491414;31;34375;-86
2022/02/17 10:53:42;;;;;;;4.00;2.62;;;;;;;15.60;44.29;98257.81;4484788;31;33247;-86
2022/02/17 10:56:12;;;;;;;5.47;3.35;;;;;;;15.32;44.05;98246.09;4473034;31;32913;-86
2022/02/17 10:58:50;;;;;;;4.68;3.03;;;;;;;15.40;45.33;98256.91;4479733;31;32460;-85
2022/02/17 11:01:20;;;;;;;5.60;3.83;;;;;;;15.22;44.61;98256.69;4479913;31;33768;-86
2022/02/17 11:03:48;;;;;;;5.32;3.40;;;;;;;15.57;46.19;98266.06;4479221;31;33922;-85
2022/02/17 11:06:17;;;;;;;5.93;2.83;;;;;;;15.69;45.53;98237.56;4479439;31;32190;-85
2022/02/17 11:08:47;;;;;;;7.43;3.42;;;;;;;15.66;43.80;98211.22;4495302;31;33338;-85
2022/02/17 11:11:18;;;;;;;4.43;3.20;;;;;;;15.95;44.06;98222.75;4492806;31;33245;-86
2022/02/17 11:13:48;;;;;;;5.12;3.22;;;;;;;15.93;42.37;98214.06;4473989;31;34371;-86
2022/02/17 11:16:22;;;;;;;3.85;3.30;;;;;;;16.23;43.87;98210.41;4467816;31;32582;-85
2022/02/17 11:18:58;;;;;;;6.87;3.50;;;;;;;16.37;43.24;98225.09;4493779;31;33273;-85
2022/02/17 11:21:28;;;;;;;4.82;3.05;;;;;;;15.64;43.65;98216.69;4481417;31;33512;-85
2022/02/17 11:23:58;;;;;;;6.65;3.53;;;;;;;16.00;43.96;98231.16;4472638;31;33125;-85
2022/02/17 11:26:30;;;;;;;5.62;3.33;;;;;;;16.22;42.68;98240.69;4478989;31;32228;-85
2022/02/17 11:29:25;;;;;;;7.07;3.40;;;;;;;14.92;44.73;98233.63;4473801;31;33577;-84
2022/02/17 11:31:57;;;;;;;5.70;3.53;;;;;;;15.40;44.87;98232.97;4472427;31;33223;-85
2022/02/17 11:34:45;;;;;;;4.87;3.35;;;;;;;15.47;44.46;98265.19;4479106;31;32939;-85
2022/02/17 11:37:22;;;;;;;5.35;3.58;;;;;;;14.98;45.83;98259.69;4495732;31;33737;-85
2022/02/17 11:39:53;;;;;;;5.93;3.20;;;;;;;15.23;45.47;98258.38;4494299;31;33461;-85
2022/02/17 11:42:45;;;;;;;5.85;3.10;;;;;;;15.46;45.62;98237.75;4491941;31;35128;-85
2022/02/17 11:45:18;;;;;;;5.05;3.50;;;;;;;14.83;47.42;98259.19;4493895;31;32611;-85
2022/02/17 11:48:09;;;;;;;5.37;3.33;;;;;;;15.70;44.88;98272.00;4491538;31;33039;-85
2022/02/17 11:50:39;;;;;;;4.47;3.07;;;;;;;15.59;44.31;98294.22;4491802;31;33079;-85
2022/02/17 11:53:37;;;;;;;4.85;3.35;;;;;;;15.24;45.35;98329.22;4500898;31;34520;-86
2022/02/17 11:56:17;;;;;;;4.85;3.17;;;;;;;15.39;45.15;98337.69;4486115;31;33914;-86